Time;durP1;ratioP1;P1;durP2;ratioP2;P2;SDS_P1;SDS_P2;PMS_P1;PMS_P2;Temp;Humidity;BMP_temperature;BMP_pressure;BME280_temperature;BME280_humidity;BME280_pressure;Samples;Min_cycle;Max_cycle;Signal;HPM_P1;HPM_P2
2021/12/29 00:01:23;;;;;;;52.17;6.18;;;8.60;90.10;;;;;;5045678;22;20061;-80
2021/12/29 00:03:49;;;;;;;119.38;10.10;;;8.60;90.10;;;;;;5033623;28;20037;-79
2021/12/29 00:06:14;;;;;;;86.82;8.07;;;8.60;90.10;;;;;;5042616;28;20035;-79
2021/12/29 00:08:40;;;;;;;69.03;8.98;;;8.70;90.10;;;;;;5033707;28;20060;-79
2021/12/29 00:11:06;;;;;;;94.43;9.75;;;8.60;90.00;;;;;;5033611;28;20029;-79
2021/12/29 00:13:31;;;;;;;305.27;19.52;;;8.70;90.10;;;;;;5033198;28;20037;-78
2021/12/29 00:15:58;;;;;;;183.10;13.07;;;8.70;90.20;;;;;;5033873;28;20044;-79
2021/12/29 00:18:30;;;;;;;161.57;15.18;;;8.60;90.10;;;;;;5033682;28;20061;-79
2021/12/29 00:20:56;;;;;;;101.88;10.30;;;8.60;90.00;;;;;;5035627;28;20025;-79
2021/12/29 00:23:22;;;;;;;97.25;8.65;;;8.60;90.00;;;;;;5035990;28;20030;-78
2021/12/29 00:25:47;;;;;;;90.70;10.27;;;8.70;90.10;;;;;;5036941;28;20029;-79
2021/12/29 00:28:14;;;;;;;99.97;10.38;;;8.60;90.00;;;;;;5035717;28;20030;-79
2021/12/29 00:30:41;;;;;;;81.45;9.00;;;8.70;90.10;;;;;;5035093;28;20060;-79
2021/12/29 00:33:07;;;;;;;76.65;8.40;;;8.60;90.00;;;;;;5036582;28;20030;-79
2021/12/29 00:35:35;;;;;;;103.25;9.25;;;8.60;90.00;;;;;;5034839;28;20014;-79
2021/12/29 00:38:02;;;;;;;117.13;13.20;;;8.60;90.00;;;;;;5034922;28;20025;-79
2021/12/29 00:40:29;;;;;;;95.32;9.98;;;8.70;90.10;;;;;;5035042;28;20483;-79
2021/12/29 00:42:54;;;;;;;102.97;11.55;;;8.70;90.00;;;;;;5034666;28;20100;-79
2021/12/29 00:45:20;;;;;;;78.57;8.43;;;8.70;90.00;;;;;;5035591;28;20037;-79
2021/12/29 00:47:46;;;;;;;91.95;9.80;;;8.70;90.00;;;;;;5034737;28;20051;-79
2021/12/29 00:50:15;;;;;;;81.75;9.68;;;8.60;90.00;;;;;;5035134;28;20032;-79
2021/12/29 00:52:42;;;;;;;78.57;9.95;;;8.70;90.00;;;;;;5033520;28;20503;-79
2021/12/29 00:55:08;;;;;;;83.70;8.48;;;8.70;90.00;;;;;;5033792;28;20135;-79
2021/12/29 00:57:34;;;;;;;94.65;10.38;;;8.60;90.00;;;;;;5033852;28;20029;-79
2021/12/29 01:00:00;;;;;;;73.20;10.55;;;8.70;90.00;;;;;;5033923;28;20033;-79
2021/12/29 01:02:25;;;;;;;95.75;10.48;;;8.70;90.00;;;;;;5033405;28;20037;-79
2021/12/29 01:04:51;;;;;;;85.68;8.80;;;8.70;90.00;;;;;;5032964;28;20072;-79
2021/12/29 01:07:17;;;;;;;84.53;10.25;;;8.60;90.00;;;;;;5033391;28;20450;-79
2021/12/29 01:09:44;;;;;;;83.78;9.02;;;8.60;90.00;;;;;;5032742;28;20486;-79
2021/12/29 01:12:11;;;;;;;74.45;8.30;;;8.60;90.00;;;;;;5032657;28;20036;-78
2021/12/29 01:14:41;;;;;;;73.55;9.75;;;8.70;90.00;;;;;;5032686;28;20026;-79
2021/12/29 01:17:06;;;;;;;77.05;8.80;;;8.70;90.00;;;;;;5033301;28;20022;-79
2021/12/29 01:19:32;;;;;;;77.75;10.23;;;8.60;90.00;;;;;;5035651;28;20056;-79
2021/12/29 01:22:00;;;;;;;63.88;8.10;;;8.70;90.00;;;;;;5038016;28;20033;-79
2021/12/29 01:24:28;;;;;;;62.95;8.50;;;8.60;90.00;;;;;;5038056;28;20025;-78
2021/12/29 01:26:54;;;;;;;64.32;8.48;;;8.70;90.00;;;;;;5037596;28;20068;-79
2021/12/29 01:29:20;;;;;;;72.85;8.20;;;8.70;90.00;;;;;;5037880;28;20080;-79
2021/12/29 01:31:46;;;;;;;60.92;8.35;;;8.70;90.00;;;;;;5038173;28;20120;-80
2021/12/29 01:34:13;;;;;;;62.42;9.07;;;8.60;90.00;;;;;;5037031;28;20052;-79
2021/12/29 01:36:40;;;;;;;52.05;7.57;;;8.70;90.00;;;;;;5037502;28;20067;-79
2021/12/29 01:39:11;;;;;;;54.00;7.80;;;8.70;90.00;;;;;;5038732;28;20025;-79
2021/12/29 01:41:37;;;;;;;54.92;7.50;;;8.70;90.00;;;;;;5037392;28;20070;-79
2021/12/29 01:44:03;;;;;;;47.83;7.72;;;8.60;90.00;;;;;;5037409;28;20479;-79
2021/12/29 01:46:29;;;;;;;47.63;7.93;;;8.60;90.00;;;;;;5038785;28;20033;-79
2021/12/29 01:48:55;;;;;;;43.75;6.80;;;8.60;90.00;;;;;;5038546;28;20025;-79
2021/12/29 01:51:21;;;;;;;53.88;7.75;;;8.60;90.00;;;;;;5037841;28;20071;-79
2021/12/29 01:54:03;;;;;;;48.67;7.60;;;8.70;90.00;;;;;;5036272;28;20029;-79
2021/12/29 01:56:32;;;;;;;46.75;8.52;;;8.70;90.00;;;;;;5038342;28;20025;-80
2021/12/29 01:58:57;;;;;;;53.97;7.53;;;8.70;90.00;;;;;;5038161;28;20049;-79
2021/12/29 02:01:24;;;;;;;38.20;7.28;;;8.60;90.00;;;;;;5038080;28;20033;-79
2021/12/29 02:03:52;;;;;;;45.28;7.68;;;8.70;90.00;;;;;;5038264;28;20033;-79
2021/12/29 02:06:18;;;;;;;42.80;5.97;;;8.70;90.00;;;;;;5038478;28;20021;-79
2021/12/29 02:08:43;;;;;;;41.30;7.45;;;8.60;89.90;;;;;;5037874;28;20033;-76
2021/12/29 02:11:09;;;;;;;40.97;7.70;;;8.70;90.00;;;;;;5036921;28;20033;-79
2021/12/29 02:13:35;;;;;;;37.53;5.70;;;8.70;90.00;;;;;;5036399;28;20025;-79
2021/12/29 02:16:00;;;;;;;40.90;6.03;;;8.70;90.00;;;;;;5036629;28;20036;-80
2021/12/29 02:18:26;;;;;;;29.50;6.18;;;8.70;90.00;;;;;;5038686;28;20113;-80
2021/12/29 02:20:54;;;;;;;35.60;6.20;;;8.70;90.00;;;;;;5038188;28;20025;-80
2021/12/29 02:23:29;;;;;;;33.33;6.70;;;8.70;90.00;;;;;;5038215;28;20112;-79
2021/12/29 02:25:57;;;;;;;31.65;5.18;;;8.70;90.00;;;;;;5039257;28;20025;-79
2021/12/29 02:28:29;;;;;;;34.75;6.68;;;8.70;90.00;;;;;;5039178;28;20044;-80
2021/12/29 02:30:56;;;;;;;29.02;6.13;;;8.70;90.00;;;;;;5038900;28;20029;-80
2021/12/29 02:33:23;;;;;;;28.33;6.10;;;8.60;89.90;;;;;;5038800;28;20117;-78
2021/12/29 02:35:49;;;;;;;25.02;5.45;;;8.60;89.90;;;;;;5038993;28;20029;-79
2021/12/29 02:38:46;;;;;;;32.97;6.22;;;8.60;89.90;;;;;;5037526;28;20029;-79
2021/12/29 02:41:12;;;;;;;34.22;6.05;;;8.70;90.00;;;;;;5037590;28;20025;-79
2021/12/29 02:43:39;;;;;;;87.05;8.88;;;8.70;90.00;;;;;;5037234;28;20036;-79
2021/12/29 02:46:11;;;;;;;67.50;7.82;;;8.70;90.00;;;;;;5037576;28;20051;-79
2021/12/29 02:48:59;;;;;;;61.08;8.43;;;8.70;90.10;;;;;;5037101;28;20479;-79
2021/12/29 02:51:29;;;;;;;50.30;6.72;;;8.70;90.00;;;;;;5037375;28;20037;-79
2021/12/29 02:53:54;;;;;;;37.28;6.00;;;8.70;90.00;;;;;;5037035;28;20029;-79
2021/12/29 02:56:22;;;;;;;34.97;6.10;;;8.70;90.00;;;;;;5037537;28;20302;-79
2021/12/29 02:58:47;;;;;;;42.30;6.70;;;8.70;90.00;;;;;;5037109;28;20434;-79
2021/12/29 03:01:18;;;;;;;38.53;5.60;;;8.70;90.00;;;;;;5036737;28;20022;-79
2021/12/29 03:03:43;;;;;;;36.42;5.60;;;8.70;90.00;;;;;;5036896;28;20065;-79
2021/12/29 03:06:10;;;;;;;169.57;14.82;;;8.70;90.30;;;;;;5038287;28;20507;-79
2021/12/29 03:08:36;;;;;;;59.13;8.25;;;8.70;90.10;;;;;;5038012;28;20438;-79
2021/12/29 03:11:03;;;;;;;120.00;12.77;;;8.70;90.00;;;;;;5035969;28;20376;-79
2021/12/29 03:13:31;;;;;;;60.22;7.78;;;8.70;90.10;;;;;;5036001;28;20037;-79
2021/12/29 03:15:57;;;;;;;53.97;6.80;;;8.70;90.00;;;;;;5036352;28;20139;-79
2021/12/29 03:18:23;;;;;;;41.05;6.40;;;8.70;90.00;;;;;;5036152;28;20502;-79
2021/12/29 03:20:49;;;;;;;35.83;6.82;;;8.70;90.00;;;;;;5035869;28;20022;-79
2021/12/29 03:23:17;;;;;;;64.63;8.05;;;8.70;90.00;;;;;;5036150;28;20072;-79
2021/12/29 03:25:43;;;;;;;112.30;11.52;;;8.70;90.00;;;;;;5036022;28;20483;-78
2021/12/29 03:28:08;;;;;;;141.27;12.98;;;8.70;90.00;;;;;;5037703;28;20113;-80
2021/12/29 03:30:38;;;;;;;132.48;13.27;;;8.70;90.30;;;;;;5037999;28;20033;-78
2021/12/29 03:33:05;;;;;;;107.57;10.65;;;8.70;90.00;;;;;;5037271;28;20113;-79
2021/12/29 03:35:43;;;;;;;124.07;12.63;;;8.70;90.00;;;;;;5038466;28;20029;-80
2021/12/29 03:38:19;;;;;;;126.45;13.23;;;8.70;90.00;;;;;;5036879;28;20022;-80
2021/12/29 03:40:45;;;;;;;125.80;12.57;;;8.70;90.00;;;;;;5024841;28;20033;-80
2021/12/29 03:43:12;;;;;;;128.57;14.13;;;8.70;90.00;;;;;;5036205;28;20541;-80
2021/12/29 03:45:41;;;;;;;129.23;13.02;;;8.70;90.00;;;;;;5036787;28;20116;-81
2021/12/29 03:48:09;;;;;;;143.23;14.65;;;8.70;90.00;;;;;;5036372;28;20079;-80
2021/12/29 03:50:35;;;;;;;131.50;14.93;;;8.70;90.00;;;;;;5036844;28;20215;-80
2021/12/29 03:53:01;;;;;;;156.77;16.45;;;8.70;90.00;;;;;;5036850;28;20486;-81
2021/12/29 03:55:27;;;;;;;196.70;19.00;;;8.70;90.00;;;;;;5037438;28;20096;-81
2021/12/29 03:57:52;;;;;;;189.13;18.85;;;8.70;90.00;;;;;;5035788;28;20028;-80
2021/12/29 04:00:20;;;;;;;187.32;18.63;;;8.70;90.00;;;;;;5036191;28;20391;-80
2021/12/29 04:02:46;;;;;;;156.75;15.23;;;8.70;90.00;;;;;;5035984;28;20035;-80
2021/12/29 04:05:18;;;;;;;160.05;16.40;;;8.70;90.00;;;;;;5037763;28;20049;-80
2021/12/29 04:07:44;;;;;;;128.38;13.60;;;8.70;90.00;;;;;;5037056;28;20065;-81
2021/12/29 04:10:11;;;;;;;119.85;13.70;;;8.70;90.10;;;;;;5035621;28;20079;-80
2021/12/29 04:12:39;;;;;;;130.65;12.95;;;8.70;90.00;;;;;;5035542;28;20032;-80
2021/12/29 04:15:09;;;;;;;132.52;14.07;;;8.70;90.00;;;;;;5035512;28;20026;-80
2021/12/29 04:17:38;;;;;;;116.03;13.15;;;8.70;90.00;;;;;;5037008;28;20111;-80
2021/12/29 04:23:08;;;;;;;102.43;12.95;;;8.70;90.00;;;;;;5037622;28;20469;-80
2021/12/29 04:25:36;;;;;;;121.43;13.63;;;8.70;90.00;;;;;;5036855;28;20430;-80
2021/12/29 04:28:04;;;;;;;105.72;11.88;;;8.70;90.00;;;;;;5036488;28;20083;-80
2021/12/29 04:30:30;;;;;;;229.40;18.88;;;8.70;90.00;;;;;;5035401;28;20022;-80
2021/12/29 04:32:55;;;;;;;124.45;13.55;;;8.70;90.10;;;;;;5036937;28;20499;-80
2021/12/29 04:35:22;;;;;;;143.40;14.55;;;8.70;90.00;;;;;;5035385;28;20056;-80
2021/12/29 04:37:49;;;;;;;137.27;13.35;;;8.70;90.00;;;;;;5035063;28;20026;-80
2021/12/29 04:40:16;;;;;;;95.05;11.20;;;8.70;90.00;;;;;;5034665;28;20022;-80
2021/12/29 04:42:41;;;;;;;95.97;11.23;;;8.70;90.00;;;;;;5035890;28;20418;-80
2021/12/29 04:45:07;;;;;;;83.97;10.82;;;8.70;90.00;;;;;;5034017;28;20025;-80
2021/12/29 04:47:38;;;;;;;78.25;11.55;;;8.70;90.00;;;;;;5035479;28;20029;-80
2021/12/29 04:50:04;;;;;;;95.70;10.63;;;8.70;90.00;;;;;;5035302;28;20022;-80
2021/12/29 04:52:31;;;;;;;83.38;10.48;;;8.70;90.00;;;;;;5034930;28;20030;-80
2021/12/29 04:54:57;;;;;;;97.68;10.10;;;8.70;89.90;;;;;;5033734;28;20532;-80
2021/12/29 04:57:23;;;;;;;86.93;11.10;;;8.70;89.90;;;;;;5034066;28;20021;-80
2021/12/29 04:59:48;;;;;;;91.93;10.98;;;8.70;89.90;;;;;;5035178;28;20167;-80
2021/12/29 05:02:14;;;;;;;89.72;10.90;;;8.70;89.90;;;;;;5033416;28;20040;-81
2021/12/29 05:04:55;;;;;;;71.30;9.75;;;8.70;89.90;;;;;;5033620;28;20442;-80
2021/12/29 05:10:05;;;;;;;78.72;10.07;;;8.70;89.90;;;;;;5035431;28;20095;-80
2021/12/29 05:12:31;;;;;;;83.80;10.57;;;8.70;89.90;;;;;;5033322;28;20029;-80
2021/12/29 05:14:56;;;;;;;65.85;9.35;;;8.70;89.90;;;;;;5033146;28;20053;-80
2021/12/29 05:17:22;;;;;;;65.85;9.23;;;8.70;89.90;;;;;;5034484;28;20021;-80
2021/12/29 05:19:48;;;;;;;76.03;9.45;;;8.70;89.90;;;;;;5033835;28;20446;-80
2021/12/29 05:22:13;;;;;;;58.30;8.75;;;8.70;89.90;;;;;;5034060;28;20049;-80
2021/12/29 05:24:39;;;;;;;61.13;9.43;;;8.70;89.90;;;;;;5035341;28;20029;-79
2021/12/29 05:27:04;;;;;;;55.92;7.85;;;8.70;89.90;;;;;;5036202;28;20026;-81
2021/12/29 05:29:31;;;;;;;56.85;8.35;;;8.70;89.90;;;;;;5037572;28;20033;-81
2021/12/29 05:31:56;;;;;;;58.60;8.23;;;8.70;89.90;;;;;;5035848;28;20029;-80
2021/12/29 05:34:22;;;;;;;65.13;8.88;;;8.70;89.90;;;;;;5036947;28;20056;-81
2021/12/29 05:36:47;;;;;;;48.60;7.72;;;8.70;89.90;;;;;;5036704;28;20081;-81
2021/12/29 05:39:13;;;;;;;51.40;7.70;;;8.70;89.90;;;;;;5026420;28;20021;-81
2021/12/29 05:41:39;;;;;;;46.05;7.72;;;8.70;89.90;;;;;;5015676;28;20057;-80
2021/12/29 05:44:05;;;;;;;44.25;6.88;;;8.70;89.90;;;;;;5034152;28;20025;-80
2021/12/29 05:46:31;;;;;;;48.88;7.50;;;8.70;89.90;;;;;;5035603;28;20125;-80
2021/12/29 05:48:57;;;;;;;44.50;6.63;;;8.70;89.80;;;;;;5035397;28;20026;-80
2021/12/29 05:51:23;;;;;;;44.15;7.00;;;8.70;89.80;;;;;;5036425;28;20026;-81
2021/12/29 05:53:48;;;;;;;45.72;6.80;;;8.70;89.90;;;;;;5019910;28;20026;-80
2021/12/29 05:56:14;;;;;;;38.33;6.95;;;8.70;89.80;;;;;;5016534;28;20471;-80
2021/12/29 05:58:39;;;;;;;41.88;6.78;;;8.80;90.00;;;;;;5015342;28;20019;-80
2021/12/29 06:01:06;;;;;;;41.55;7.38;;;8.70;89.90;;;;;;5015085;28;20026;-80
2021/12/29 06:03:31;;;;;;;34.00;6.68;;;8.70;89.90;;;;;;5016153;28;20430;-80
2021/12/29 06:05:57;;;;;;;36.10;6.10;;;8.70;89.90;;;;;;5016590;28;20495;-79
2021/12/29 06:08:23;;;;;;;41.90;7.35;;;8.70;89.90;;;;;;5018712;28;20026;-80
2021/12/29 06:10:48;;;;;;;32.45;5.80;;;8.80;89.90;;;;;;5019298;28;20026;-80
2021/12/29 06:13:14;;;;;;;31.27;5.43;;;8.70;89.90;;;;;;5019704;28;20084;-80
2021/12/29 06:15:39;;;;;;;28.38;6.22;;;8.70;89.80;;;;;;5019882;28;20037;-80
2021/12/29 06:18:05;;;;;;;43.88;6.20;;;8.80;89.90;;;;;;5019647;28;20036;-80
2021/12/29 06:20:31;;;;;;;33.40;5.38;;;8.90;89.90;;;;;;5016778;28;20030;-79
2021/12/29 06:22:57;;;;;;;29.05;5.78;;;8.70;89.80;;;;;;5013875;28;20030;-80
2021/12/29 06:25:22;;;;;;;28.70;5.25;;;8.80;89.90;;;;;;5018422;28;20491;-80
2021/12/29 06:27:49;;;;;;;29.13;5.60;;;8.70;89.80;;;;;;5014727;28;20061;-80
2021/12/29 06:30:16;;;;;;;30.17;5.30;;;8.80;89.90;;;;;;5006414;28;20092;-80
2021/12/29 06:32:43;;;;;;;27.30;5.15;;;8.80;89.90;;;;;;5016025;28;20022;-79
2021/12/29 06:35:11;;;;;;;28.77;5.15;;;8.70;89.80;;;;;;5015139;28;20028;-81
2021/12/29 06:37:37;;;;;;;27.63;5.00;;;8.70;89.90;;;;;;5015535;28;20026;-80
2021/12/29 06:40:04;;;;;;;29.27;5.72;;;8.70;89.80;;;;;;5031067;28;20022;-81
2021/12/29 06:42:29;;;;;;;26.05;5.03;;;8.80;89.80;;;;;;4998490;28;20563;-80
2021/12/29 06:44:57;;;;;;;24.30;4.82;;;8.80;89.90;;;;;;4999350;28;20077;-81
2021/12/29 06:47:23;;;;;;;27.38;4.88;;;8.80;89.90;;;;;;4997551;28;20127;-80
2021/12/29 06:49:49;;;;;;;23.52;5.25;;;8.70;89.80;;;;;;4998156;28;20034;-80
2021/12/29 06:52:14;;;;;;;28.58;5.68;;;8.80;90.10;;;;;;4997412;28;20126;-80
2021/12/29 06:54:40;;;;;;;22.67;4.55;;;8.70;90.00;;;;;;4996458;28;20450;-79
2021/12/29 06:57:06;;;;;;;24.52;4.55;;;8.70;89.80;;;;;;4996844;28;20037;-79
2021/12/29 06:59:32;;;;;;;21.70;4.60;;;8.80;89.80;;;;;;4997780;28;20026;-81
2021/12/29 07:01:58;;;;;;;21.15;4.78;;;8.70;89.80;;;;;;4995378;28;20818;-80
2021/12/29 07:04:23;;;;;;;24.48;4.95;;;8.80;89.90;;;;;;4996603;28;20030;-80
2021/12/29 07:06:50;;;;;;;19.13;4.72;;;8.80;89.80;;;;;;4995090;28;20464;-80
2021/12/29 07:09:16;;;;;;;25.63;5.05;;;8.80;89.80;;;;;;4993583;28;20026;-79
2021/12/29 07:11:42;;;;;;;22.60;4.70;;;8.80;89.80;;;;;;5003746;28;20122;-79
2021/12/29 07:14:09;;;;;;;22.52;4.57;;;8.80;89.90;;;;;;5016711;28;20060;-80
2021/12/29 07:16:36;;;;;;;21.05;3.95;;;8.80;89.90;;;;;;5004087;28;20034;-80
2021/12/29 07:19:02;;;;;;;22.30;4.13;;;8.80;89.80;;;;;;5015746;28;20570;-82
2021/12/29 07:21:28;;;;;;;20.38;4.55;;;8.80;89.80;;;;;;5006151;28;20018;-80
2021/12/29 07:23:54;;;;;;;17.58;3.97;;;8.70;89.80;;;;;;4994262;28;20081;-79
2021/12/29 07:26:24;;;;;;;15.65;3.83;;;8.80;89.80;;;;;;4994770;28;20040;-81
2021/12/29 07:28:51;;;;;;;17.83;3.75;;;8.80;89.80;;;;;;4994595;28;20480;-78
2021/12/29 07:31:18;;;;;;;18.25;3.85;;;8.80;89.80;;;;;;4993875;28;20065;-79
2021/12/29 07:33:47;;;;;;;17.20;4.13;;;8.80;89.80;;;;;;4993733;28;20030;-81
2021/12/29 07:36:13;;;;;;;20.77;4.05;;;8.80;89.80;;;;;;4994698;28;20113;-79
2021/12/29 07:38:40;;;;;;;17.98;3.65;;;8.80;90.00;;;;;;4993985;28;20061;-82
2021/12/29 07:41:06;;;;;;;17.50;4.35;;;8.80;89.90;;;;;;4994704;28;20022;-80
2021/12/29 07:43:31;;;;;;;20.48;4.45;;;8.80;89.90;;;;;;4997597;28;20578;-79
2021/12/29 07:45:57;;;;;;;19.30;3.78;;;8.70;89.90;;;;;;4995591;28;20034;-80
2021/12/29 07:48:28;;;;;;;16.60;3.85;;;8.80;90.00;;;;;;4995151;28;20022;-80
2021/12/29 07:50:54;;;;;;;14.18;3.30;;;8.70;90.00;;;;;;4994756;28;20045;-82
2021/12/29 07:53:21;;;;;;;14.05;3.55;;;8.70;90.10;;;;;;4996423;28;20042;-81
2021/12/29 07:55:47;;;;;;;16.15;3.53;;;8.80;90.20;;;;;;4994862;28;20109;-78
2021/12/29 07:58:13;;;;;;;16.23;2.72;;;8.70;90.20;;;;;;4994289;28;20033;-78
2021/12/29 08:00:39;;;;;;;12.63;3.35;;;8.70;90.30;;;;;;4995178;28;20419;-80
2021/12/29 08:03:05;;;;;;;11.57;3.55;;;8.80;90.30;;;;;;4993267;28;20179;-78
2021/12/29 08:05:30;;;;;;;14.02;3.92;;;8.80;90.30;;;;;;4994523;28;20703;-78
2021/12/29 08:07:56;;;;;;;10.55;2.75;;;8.70;90.40;;;;;;4994213;28;20041;-79
2021/12/29 08:10:22;;;;;;;9.43;2.85;;;8.70;90.50;;;;;;4993056;28;20096;-79
2021/12/29 08:12:48;;;;;;;9.80;3.22;;;8.80;90.60;;;;;;4994529;28;20518;-83
2021/12/29 08:15:16;;;;;;;11.15;3.10;;;8.70;90.60;;;;;;4994236;28;20058;-80
2021/12/29 08:17:43;;;;;;;8.57;2.95;;;8.70;90.60;;;;;;4993009;28;20033;-79
2021/12/29 08:20:09;;;;;;;10.15;2.80;;;8.80;90.50;;;;;;4994510;28;20022;-81
2021/12/29 08:22:35;;;;;;;10.77;2.97;;;8.70;90.60;;;;;;4995565;28;20488;-80
2021/12/29 08:25:01;;;;;;;11.73;3.05;;;8.70;90.50;;;;;;4994445;28;20033;-81
2021/12/29 08:27:26;;;;;;;12.68;2.92;;;8.80;90.60;;;;;;4995829;28;20145;-81
2021/12/29 08:29:52;;;;;;;10.15;2.97;;;8.80;90.70;;;;;;4995533;28;20030;-82
2021/12/29 08:32:17;;;;;;;8.45;2.83;;;8.80;90.60;;;;;;4993946;28;20487;-82
2021/12/29 08:34:43;;;;;;;11.23;2.92;;;8.80;90.60;;;;;;4992405;28;20030;-83
2021/12/29 08:37:09;;;;;;;8.70;2.92;;;8.80;90.60;;;;;;4992375;28;20593;-81
2021/12/29 08:39:35;;;;;;;7.70;3.03;;;8.80;90.70;;;;;;4993480;28;20372;-81
2021/12/29 08:42:00;;;;;;;8.05;2.78;;;8.80;90.70;;;;;;4994879;28;20035;-77
2021/12/29 08:44:26;;;;;;;9.40;3.00;;;8.70;90.60;;;;;;4999655;28;20473;-79
2021/12/29 08:46:52;;;;;;;7.50;2.85;;;8.80;90.70;;;;;;5012076;28;20036;-81
2021/12/29 08:49:17;;;;;;;6.30;2.20;;;8.80;90.70;;;;;;5010015;28;20017;-80
2021/12/29 08:51:43;;;;;;;9.45;2.90;;;8.80;90.70;;;;;;5011291;28;20017;-83
2021/12/29 08:54:09;;;;;;;10.25;2.70;;;8.80;90.70;;;;;;4994761;28;20023;-81
2021/12/29 08:56:36;;;;;;;8.40;2.53;;;8.80;90.70;;;;;;4993248;28;20045;-81
2021/12/29 08:59:02;;;;;;;7.28;2.88;;;8.70;90.70;;;;;;4994167;28;20081;-83
2021/12/29 09:01:28;;;;;;;6.75;2.80;;;8.80;90.80;;;;;;4992963;28;20062;-80
2021/12/29 09:03:54;;;;;;;7.30;2.78;;;8.80;90.80;;;;;;4992232;28;20030;-81
2021/12/29 09:06:20;;;;;;;6.25;2.28;;;8.80;90.80;;;;;;4992455;28;20220;-81
2021/12/29 09:08:46;;;;;;;6.88;2.80;;;8.80;90.80;;;;;;4991043;28;20022;-82
2021/12/29 09:11:12;;;;;;;8.85;2.72;;;8.80;90.80;;;;;;4989978;28;20034;-81
2021/12/29 09:13:39;;;;;;;6.43;2.70;;;8.80;90.90;;;;;;4991514;28;20035;-81
2021/12/29 09:16:06;;;;;;;7.38;2.67;;;8.80;90.80;;;;;;4990209;28;20023;-79
2021/12/29 09:18:33;;;;;;;6.97;2.70;;;8.80;90.90;;;;;;4990571;28;20034;-83
2021/12/29 09:21:06;;;;;;;7.47;2.70;;;8.80;91.00;;;;;;4990554;28;20457;-80
2021/12/29 09:23:32;;;;;;;6.97;2.70;;;8.80;90.90;;;;;;4990012;28;20034;-82
2021/12/29 09:25:58;;;;;;;6.75;2.60;;;8.80;90.80;;;;;;4992784;28;20026;-83
2021/12/29 09:28:24;;;;;;;5.55;2.72;;;8.80;90.90;;;;;;4992674;28;20033;-84
2021/12/29 09:30:50;;;;;;;6.05;2.50;;;8.80;90.90;;;;;;4994515;28;20033;-80
2021/12/29 09:33:19;;;;;;;7.30;2.90;;;8.80;91.00;;;;;;4992020;28;20041;-80
2021/12/29 09:35:47;;;;;;;7.28;3.10;;;8.80;90.90;;;;;;4991805;28;20022;-81
2021/12/29 09:38:14;;;;;;;5.82;2.63;;;8.80;91.00;;;;;;4992866;28;20510;-82
2021/12/29 09:40:40;;;;;;;6.28;2.78;;;8.80;91.00;;;;;;4992877;28;20663;-81
2021/12/29 09:43:09;;;;;;;6.70;2.75;;;8.80;91.00;;;;;;4995619;28;20038;-80
2021/12/29 09:45:36;;;;;;;8.75;2.92;;;8.70;91.00;;;;;;4996982;28;20627;-81
2021/12/29 09:48:01;;;;;;;5.68;2.78;;;8.80;91.00;;;;;;4996807;28;20061;-82
2021/12/29 09:50:27;;;;;;;6.38;2.72;;;8.80;91.00;;;;;;4996913;28;20034;-80
2021/12/29 09:52:53;;;;;;;7.85;3.08;;;8.80;91.00;;;;;;4996289;28;20026;-82
2021/12/29 09:55:21;;;;;;;8.02;3.00;;;8.80;91.00;;;;;;4995888;28;20030;-80
2021/12/29 09:57:50;;;;;;;7.90;3.38;;;8.80;91.00;;;;;;4995611;28;20026;-81
2021/12/29 10:00:26;;;;;;;7.93;2.90;;;8.80;91.00;;;;;;4993711;28;20113;-81
2021/12/29 10:02:53;;;;;;;9.27;3.22;;;8.80;91.00;;;;;;4993745;28;20074;-80
2021/12/29 10:05:20;;;;;;;6.65;2.92;;;8.80;91.00;;;;;;5010018;28;20032;-81
2021/12/29 10:08:10;;;;;;;7.57;3.15;;;8.80;91.00;;;;;;5013265;28;20030;-79
2021/12/29 10:10:40;;;;;;;13.32;3.20;;;8.80;91.00;;;;;;5012514;28;20042;-78
2021/12/29 10:13:07;;;;;;;8.75;2.97;;;8.80;91.10;;;;;;5004661;28;20041;-77
2021/12/29 10:15:37;;;;;;;7.10;2.72;;;8.70;91.10;;;;;;5009879;28;20032;-79
2021/12/29 10:18:12;;;;;;;7.60;2.78;;;8.80;91.10;;;;;;5013709;28;20057;-80
2021/12/29 10:20:50;;;;;;;6.97;3.00;;;8.80;91.10;;;;;;5013008;28;20101;-77
2021/12/29 10:23:26;;;;;;;6.30;2.88;;;8.80;91.10;;;;;;5012504;28;20495;-81
2021/12/29 10:25:54;;;;;;;6.82;3.00;;;8.80;91.10;;;;;;5013669;28;20034;-81
2021/12/29 10:28:30;;;;;;;6.07;2.67;;;8.80;91.10;;;;;;5012193;28;20434;-78
2021/12/29 10:31:04;;;;;;;6.85;2.80;;;8.80;91.10;;;;;;5013783;28;20034;-79
2021/12/29 10:33:39;;;;;;;8.10;3.00;;;8.90;91.10;;;;;;5013347;28;20028;-79
2021/12/29 10:36:27;;;;;;;6.80;3.00;;;8.80;91.10;;;;;;5012056;28;20058;-80
2021/12/29 10:38:58;;;;;;;6.57;2.97;;;8.80;91.10;;;;;;5012409;28;20026;-79
2021/12/29 10:41:25;;;;;;;7.00;3.50;;;8.80;91.20;;;;;;5012893;28;20037;-79
2021/12/29 10:43:53;;;;;;;8.80;3.42;;;8.80;91.10;;;;;;5012752;28;20061;-79
2021/12/29 10:46:20;;;;;;;8.10;3.45;;;8.80;91.10;;;;;;5011227;28;20052;-77
2021/12/29 10:48:48;;;;;;;6.72;3.20;;;8.80;91.10;;;;;;5012697;28;20025;-78
2021/12/29 10:51:13;;;;;;;6.43;3.42;;;8.80;91.10;;;;;;5011935;28;20040;-78
2021/12/29 10:53:39;;;;;;;8.23;3.08;;;8.90;91.20;;;;;;5012974;28;20034;-80
2021/12/29 10:56:06;;;;;;;7.55;3.20;;;8.90;91.10;;;;;;5013155;28;20080;-83
2021/12/29 10:58:34;;;;;;;9.50;3.90;;;8.90;91.00;;;;;;5012975;28;20520;-80
2021/12/29 11:01:10;;;;;;;7.60;3.67;;;8.90;91.20;;;;;;5012970;28;20091;-78
2021/12/29 11:03:55;;;;;;;9.45;3.60;;;8.90;91.10;;;;;;5011338;28;20038;-79
2021/12/29 11:06:24;;;;;;;484.33;37.88;;;8.90;91.30;;;;;;5015209;28;20045;-78
2021/12/29 11:08:54;;;;;;;474.95;40.03;;;8.90;91.40;;;;;;5002182;28;20077;-81
2021/12/29 11:11:44;;;;;;;563.97;47.08;;;8.90;91.40;;;;;;4994590;28;20034;-79
2021/12/29 11:14:21;;;;;;;531.25;44.35;;;8.90;91.50;;;;;;4993026;28;20377;-78
2021/12/29 11:17:14;;;;;;;416.13;33.97;;;8.90;91.50;;;;;;4991335;28;20667;-80
2021/12/29 11:19:49;;;;;;;300.90;26.65;;;8.90;91.50;;;;;;4993175;28;20058;-79
2021/12/29 11:22:18;;;;;;;212.15;19.52;;;8.90;91.60;;;;;;4994177;28;20035;-79
2021/12/29 11:24:51;;;;;;;163.15;16.63;;;8.90;91.60;;;;;;4993117;28;20033;-79
2021/12/29 11:27:18;;;;;;;145.55;12.98;;;8.90;91.90;;;;;;4994111;28;20077;-79
2021/12/29 11:30:12;;;;;;;105.60;11.95;;;8.90;91.70;;;;;;4992237;28;20090;-79
2021/12/29 11:32:43;;;;;;;85.90;9.50;;;8.90;91.70;;;;;;4989657;28;20391;-78
2021/12/29 11:35:19;;;;;;;57.03;8.60;;;8.90;91.80;;;;;;4995681;28;20109;-78
2021/12/29 11:37:55;;;;;;;45.55;8.18;;;8.90;91.90;;;;;;5011725;28;20064;-79
2021/12/29 11:40:28;;;;;;;44.53;7.65;;;8.90;91.90;;;;;;4992462;28;20085;-79
2021/12/29 11:42:54;;;;;;;48.78;6.97;;;8.90;92.00;;;;;;4994896;28;20054;-78
2021/12/29 11:45:21;;;;;;;41.42;7.55;;;8.80;92.00;;;;;;4993407;28;20089;-77
2021/12/29 11:47:48;;;;;;;37.05;5.88;;;8.90;92.00;;;;;;4994521;28;20045;-76
2021/12/29 11:50:29;;;;;;;35.95;7.25;;;8.90;91.90;;;;;;5014595;28;20072;-79
2021/12/29 11:53:25;;;;;;;34.53;5.97;;;8.80;91.90;;;;;;5011384;28;20053;-79
2021/12/29 11:55:56;;;;;;;33.28;6.70;;;8.90;91.90;;;;;;5013502;28;20037;-78
2021/12/29 11:58:34;;;;;;;28.70;5.88;;;8.90;92.00;;;;;;5014092;28;20036;-78
2021/12/29 12:01:10;;;;;;;24.83;5.93;;;8.80;91.90;;;;;;5014604;28;20030;-80
2021/12/29 12:04:05;;;;;;;22.77;5.70;;;8.90;91.90;;;;;;5015912;28;20088;-79
2021/12/29 12:06:43;;;;;;;31.50;6.53;;;8.90;91.90;;;;;;5012590;28;20025;-78
2021/12/29 12:09:22;;;;;;;22.67;5.90;;;8.90;91.70;;;;;;5012923;28;20045;-78
2021/12/29 12:11:48;;;;;;;27.08;6.18;;;9.00;91.70;;;;;;5013649;28;20022;-79
2021/12/29 12:14:23;;;;;;;28.77;6.20;;;9.00;91.70;;;;;;5013514;28;20036;-79
2021/12/29 12:16:54;;;;;;;23.95;5.00;;;9.00;91.70;;;;;;5011375;28;20034;-79
2021/12/29 12:19:22;;;;;;;24.35;5.47;;;9.00;91.70;;;;;;5011772;28;20029;-79
2021/12/29 12:21:48;;;;;;;26.73;6.25;;;9.10;91.50;;;;;;5010148;28;20018;-78
2021/12/29 12:24:18;;;;;;;23.35;5.53;;;9.00;91.50;;;;;;5009673;28;20080;-79
2021/12/29 12:26:48;;;;;;;22.58;4.95;;;9.00;91.50;;;;;;5011326;28;20072;-80
2021/12/29 12:29:16;;;;;;;18.75;5.57;;;9.10;91.50;;;;;;5011148;28;20534;-79
2021/12/29 12:31:47;;;;;;;14.95;4.65;;;9.10;91.50;;;;;;5010461;28;20026;-78
2021/12/29 12:34:13;;;;;;;14.45;4.93;;;9.10;91.50;;;;;;5011656;28;20558;-79
2021/12/29 12:36:41;;;;;;;17.30;5.15;;;9.00;91.60;;;;;;5012845;28;20022;-78
2021/12/29 12:39:13;;;;;;;14.82;4.65;;;9.10;91.60;;;;;;5012974;28;20097;-79
2021/12/29 12:41:41;;;;;;;13.82;4.38;;;9.10;91.70;;;;;;5011482;28;20026;-78
2021/12/29 12:44:07;;;;;;;11.43;4.70;;;9.10;91.80;;;;;;5006160;28;20367;-78
2021/12/29 12:46:43;;;;;;;10.80;4.65;;;9.10;91.70;;;;;;5011665;28;20416;-77
2021/12/29 12:49:22;;;;;;;11.02;4.70;;;9.10;91.70;;;;;;5012579;28;20022;-79
2021/12/29 12:51:59;;;;;;;14.60;4.65;;;9.10;91.80;;;;;;5012361;28;20405;-78
2021/12/29 12:54:27;;;;;;;11.55;4.25;;;9.10;91.80;;;;;;5010710;28;20081;-80
2021/12/29 12:56:54;;;;;;;11.05;4.95;;;9.10;91.90;;;;;;5011391;28;20032;-79